Aérodrome :
LOGIN :

S'inscrire | Disclaimer

   EN    FR    IT 

 










Légende :    VFR   VFR Marginal   IFR   IFR Intensif   IFR Très Intensif
Visi : 
Plafond : 
>= 8 km
>= 3000ft
5 à 8 km
1000 à 3000 ft
1500m à 5 km
500 à 1000 ft
800 à 1500m
200 à 500 ft
< 800m
< 200 ft
Symboles :   Orages  Brouillard  Fortes neiges  Fortes précipitations  Vent > 20 kt
SIGMETs :   Divers  Orages  Givrage  Turbulence  Onde Orograph.  Cendres Volcan.






- Altitude de l'aérodrome : 287 ft
- Code IATA : IAR


UUDL - Tunoshna

DERNIER METAR :
  • 180700Z 23004MPS 9999 BKN011CB 11/08 Q1000 R23/150060 NOSIG RMK QFE742

METARs EXPIRÉS :
  • 180630Z 22003MPS 9999 -SHRA BKN012CB 10/09 Q1000 R23/150060 NOSIG RMK QFE742
  • 180600Z 22003MPS 9999 SCT009 BKN030 10/08 Q0999 R23/150060 NOSIG RMK QFE741
  • 180530Z 23004MPS 9999 SCT009 BKN028 10/08 Q0999 R23/150060 NOSIG RMK QFE741
  • 180500Z 21003MPS 9999 SCT009 BKN028 09/08 Q0999 R23/150060 NOSIG RMK QFE741
  • 180430Z 21003MPS CAVOK 09/08 Q0999 R23/150055 NOSIG RMK QFE741

TAF TAF UUDL
Valide du 18 à 06h jusqu'au 19 à 06h UTC


180500Z 1806/1906 23003MPS 9999 BKN020 TX14/1812Z TN07/1903Z
TEMPO 1806/1809 BKN010
BECMG 1812/1814 29006MPS
TEMPO 1814/1906 5000 -SHRA SCT010CB BKN015



MET'MAP, la Météo Aéronautique d'un coup d'oeil ! - Copyright ORBIFLY Décembre 2007 - Disclaimer

ORBIFLY MET'MAP TEAM :

Programmation & Développement : Alexandra Zaïnal
Sur une idée originale de : Baudouin d'Aumeries
Assistance à la programmation : Marc-Olivier Méhu
Soutien technique & logistique : Manuel Goepfert

Contact : metmap@orbifly.com




SOURCES & CREDITS :

   NOAA